Time;durP1;ratioP1;P1;durP2;ratioP2;P2;SDS_P1;SDS_P2;PMS_P1;PMS_P2;Temp;Humidity;BMP_temperature;BMP_pressure;BME280_temperature;BME280_humidity;BME280_pressure;Samples;Min_cycle;Max_cycle;Signal;HPM_P1;HPM_P2
2022/03/30 00:00:44;;;;;;;9.03;4.30;;;;;;;14.50;55.60;98512.19;5056486;28;20632;-92
2022/03/30 00:03:10;;;;;;;6.63;2.77;;;;;;;14.48;55.25;98514.09;5055511;28;20176;-92
2022/03/30 00:05:36;;;;;;;8.00;4.10;;;;;;;14.47;55.61;98507.13;5073443;28;20560;-92
2022/03/30 00:08:02;;;;;;;8.13;3.40;;;;;;;14.35;55.80;98510.75;5056314;28;20187;-91
2022/03/30 00:10:27;;;;;;;7.03;3.23;;;;;;;14.27;56.36;98513.09;5074242;28;20189;-91
2022/03/30 00:12:54;;;;;;;8.90;3.53;;;;;;;14.32;56.63;98508.34;5056054;28;20289;-92
2022/03/30 00:15:20;;;;;;;5.93;2.67;;;;;;;14.23;56.78;98509.03;5056518;28;20642;-91
2022/03/30 00:17:46;;;;;;;7.63;3.13;;;;;;;14.35;56.58;98506.31;5056036;28;20184;-91
2022/03/30 00:20:12;;;;;;;12.10;3.93;;;;;;;14.40;55.46;98503.31;5056051;28;20184;-91
2022/03/30 00:22:40;;;;;;;6.13;3.70;;;;;;;14.41;55.84;98497.09;5073566;28;20563;-90
2022/03/30 00:25:08;;;;;;;6.03;3.30;;;;;;;14.38;55.61;98500.81;5073536;28;20635;-91
2022/03/30 00:27:35;;;;;;;7.53;3.20;;;;;;;14.41;55.21;98499.72;5073511;28;20180;-91
2022/03/30 00:30:01;;;;;;;5.97;3.43;;;;;;;14.38;55.71;98498.19;5073510;28;20187;-91
2022/03/30 00:32:26;;;;;;;7.60;3.20;;;;;;;14.36;55.65;98492.16;5073396;28;20204;-92
2022/03/30 00:34:52;;;;;;;7.13;3.07;;;;;;;14.34;55.60;98491.44;5056288;28;20265;-91
2022/03/30 00:37:17;;;;;;;6.57;3.20;;;;;;;14.40;55.15;98498.03;5055806;28;20632;-91
2022/03/30 00:39:43;;;;;;;6.43;3.00;;;;;;;14.41;54.81;98497.91;5073340;28;20639;-92
2022/03/30 00:42:20;;;;;;;12.53;3.97;;;;;;;14.41;54.73;98491.81;5074012;28;20201;-91
2022/03/30 00:44:49;;;;;;;8.97;4.37;;;;;;;14.36;55.17;98493.97;5073573;28;20226;-92
2022/03/30 00:47:19;;;;;;;7.97;3.10;;;;;;;14.36;55.31;98493.97;5055561;28;20204;-91
2022/03/30 00:49:45;;;;;;;6.07;3.27;;;;;;;14.29;55.09;98495.34;5055619;28;20627;-91
2022/03/30 00:52:12;;;;;;;5.70;2.90;;;;;;;14.27;54.99;98494.66;5055690;28;20208;-90
2022/03/30 00:54:40;;;;;;;8.07;3.20;;;;;;;14.13;55.98;98493.91;5073656;28;20246;-90
2022/03/30 00:57:09;;;;;;;6.90;3.60;;;;;;;14.05;56.32;98495.47;5073092;28;20189;-91
2022/03/30 00:59:35;;;;;;;5.20;3.23;;;;;;;14.08;56.33;98490.81;5073655;28;20241;-91
2022/03/30 01:02:02;;;;;;;7.30;3.17;;;;;;;14.12;55.95;98486.97;5073305;28;20175;-91
2022/03/30 01:04:28;;;;;;;6.43;3.57;;;;;;;14.21;55.54;98489.84;5073327;28;20259;-92
2022/03/30 01:06:54;;;;;;;7.30;3.57;;;;;;;14.29;55.07;98492.72;5073386;28;20177;-91
2022/03/30 01:09:20;;;;;;;5.87;3.13;;;;;;;14.27;54.46;98484.09;5073013;28;20649;-92
2022/03/30 01:11:47;;;;;;;4.97;2.90;;;;;;;14.17;55.21;98476.09;5055420;28;20196;-91
2022/03/30 01:14:13;;;;;;;6.83;3.93;;;;;;;14.12;55.22;98483.50;5055519;28;20188;-92
2022/03/30 01:16:42;;;;;;;9.30;2.50;;;;;;;14.24;55.17;98473.78;5055337;28;20192;-91
2022/03/30 01:19:09;;;;;;;6.87;4.00;;;;;;;14.26;54.31;98472.72;5055135;28;20201;-92
2022/03/30 01:21:37;;;;;;;11.37;3.23;;;;;;;14.27;54.48;98468.28;5055239;28;20259;-90
2022/03/30 01:24:03;;;;;;;7.20;3.13;;;;;;;14.30;54.22;98474.16;5072813;28;20253;-91
2022/03/30 01:26:29;;;;;;;8.17;4.07;;;;;;;14.27;54.28;98468.28;5072839;28;20169;-92
2022/03/30 01:28:58;;;;;;;9.47;3.77;;;;;;;14.16;54.47;98466.50;5055217;28;20183;-91
2022/03/30 01:34:08;;;;;;;5.47;2.57;;;;;;;14.07;54.69;98462.75;5073041;28;20175;-91
2022/03/30 01:36:37;;;;;;;5.50;2.67;;;;;;;14.05;54.71;98475.22;5072695;28;20187;-91
2022/03/30 01:39:04;;;;;;;10.40;3.10;;;;;;;13.99;54.16;98469.59;5054980;28;20191;-91
2022/03/30 01:41:29;;;;;;;4.97;2.80;;;;;;;13.97;54.22;98466.22;5072924;28;20675;-91
2022/03/30 01:43:56;;;;;;;6.70;2.73;;;;;;;13.98;54.01;98467.91;5072951;28;20198;-92
2022/03/30 01:46:22;;;;;;;9.83;3.27;;;;;;;14.03;53.98;98471.88;5072916;28;20173;-91
2022/03/30 01:48:48;;;;;;;5.80;3.07;;;;;;;13.97;54.42;98471.50;5073223;28;20174;-90
2022/03/30 01:51:13;;;;;;;4.73;2.30;;;;;;;13.93;54.63;98465.63;5073106;28;20195;-91
2022/03/30 01:53:39;;;;;;;5.20;2.93;;;;;;;13.88;54.60;98470.41;5072653;28;20184;-91
2022/03/30 01:56:04;;;;;;;10.43;3.73;;;;;;;13.84;54.42;98460.22;5071510;28;20535;-91
2022/03/30 01:58:30;;;;;;;7.60;2.77;;;;;;;13.77;54.55;98470.41;5073032;28;20258;-92
2022/03/30 02:00:57;;;;;;;7.07;3.77;;;;;;;13.69;55.11;98474.56;5072649;28;20176;-92
2022/03/30 02:03:23;;;;;;;5.90;3.57;;;;;;;13.68;54.93;98465.81;5073092;28;20288;-91
2022/03/30 02:05:48;;;;;;;5.23;2.87;;;;;;;13.75;54.26;98479.38;5072490;28;20210;-91
2022/03/30 02:08:14;;;;;;;8.03;3.10;;;;;;;13.72;54.44;98477.81;5072372;28;20626;-92
2022/03/30 02:10:40;;;;;;;6.00;3.30;;;;;;;13.69;54.51;98479.81;5055194;28;20180;-92
2022/03/30 02:13:05;;;;;;;11.20;3.40;;;;;;;13.68;54.60;98486.06;5072438;28;20269;-93
2022/03/30 02:15:31;;;;;;;6.73;2.70;;;;;;;13.54;54.54;98484.47;5054828;28;20250;-91
2022/03/30 02:17:58;;;;;;;7.37;2.83;;;;;;;13.48;54.90;98491.03;5072532;28;20207;-91
2022/03/30 02:20:25;;;;;;;4.73;2.67;;;;;;;13.50;54.57;98486.47;5072403;28;20272;-92
2022/03/30 02:22:51;;;;;;;4.70;2.87;;;;;;;13.57;54.27;98488.66;5072725;28;20231;-92
2022/03/30 02:25:16;;;;;;;14.50;3.17;;;;;;;13.49;54.13;98494.50;5055598;28;20178;-92
2022/03/30 02:27:42;;;;;;;5.33;2.07;;;;;;;13.56;53.89;98495.72;5058636;28;20602;-92
2022/03/30 02:30:08;;;;;;;11.53;2.90;;;;;;;13.38;53.90;98505.81;5075962;28;20205;-92
2022/03/30 02:32:36;;;;;;;4.93;2.60;;;;;;;13.05;54.97;98508.25;5058011;28;20221;-92
2022/03/30 02:35:04;;;;;;;11.90;5.43;;;;;;;12.91;55.81;98511.88;5058117;28;20224;-92
2022/03/30 02:37:30;;;;;;;5.80;2.53;;;;;;;13.07;55.51;98505.53;5058044;28;20196;-91
2022/03/30 02:39:55;;;;;;;4.60;2.63;;;;;;;13.15;55.22;98513.72;5075637;28;20334;-91
2022/03/30 02:42:21;;;;;;;13.07;3.33;;;;;;;13.14;54.98;98518.13;5058553;28;20182;-91
2022/03/30 02:44:47;;;;;;;7.83;2.43;;;;;;;12.86;55.83;98516.66;5075565;28;20653;-91
2022/03/30 02:47:13;;;;;;;8.20;2.93;;;;;;;12.87;56.01;98512.19;5075573;28;20252;-91
2022/03/30 02:49:38;;;;;;;9.73;3.53;;;;;;;12.90;56.30;98509.34;5075554;28;20232;-91
2022/03/30 02:52:05;;;;;;;8.60;3.07;;;;;;;12.85;55.82;98514.94;5057826;28;20209;-92
2022/03/30 02:54:31;;;;;;;5.47;2.93;;;;;;;12.90;55.79;98509.34;5058617;28;20513;-92
2022/03/30 02:56:57;;;;;;;8.60;2.87;;;;;;;13.03;55.67;98514.56;5074409;28;20621;-92
2022/03/30 02:59:22;;;;;;;7.50;3.50;;;;;;;12.99;55.25;98523.63;5057788;28;20212;-92
2022/03/30 03:01:48;;;;;;;6.60;3.17;;;;;;;12.65;56.47;98520.78;5057774;28;20636;-91
2022/03/30 03:04:14;;;;;;;13.90;3.73;;;;;;;12.46;57.10;98523.03;5057647;28;20216;-91
2022/03/30 03:06:40;;;;;;;9.00;2.63;;;;;;;12.58;57.12;98530.03;5075473;28;20267;-91
2022/03/30 03:09:08;;;;;;;6.00;3.17;;;;;;;12.70;56.77;98526.56;5057437;28;20200;-92
2022/03/30 03:11:34;;;;;;;6.20;3.17;;;;;;;12.55;56.69;98527.63;5074888;28;20231;-91
2022/03/30 03:14:05;;;;;;;5.80;2.50;;;;;;;12.42;57.21;98526.78;5075022;28;20172;-92
2022/03/30 03:16:31;;;;;;;9.57;3.27;;;;;;;12.18;58.21;98526.75;5075057;28;20161;-92
2022/03/30 03:18:56;;;;;;;7.00;2.83;;;;;;;12.11;58.52;98521.97;5058198;28;20181;-92
2022/03/30 03:21:22;;;;;;;10.17;3.87;;;;;;;12.00;59.38;98527.97;5074878;28;20617;-91
2022/03/30 03:23:48;;;;;;;10.30;3.47;;;;;;;12.17;58.75;98519.78;5074843;28;20177;-91
2022/03/30 03:26:14;;;;;;;5.17;3.33;;;;;;;12.11;58.75;98527.22;5057101;28;20803;-91
2022/03/30 03:28:39;;;;;;;4.23;2.67;;;;;;;11.95;59.54;98529.25;5057063;28;20523;-91
2022/03/30 03:31:05;;;;;;;5.20;1.90;;;;;;;12.19;58.94;98527.56;5057040;28;20184;-91
2022/03/30 03:33:31;;;;;;;12.10;3.07;;;;;;;12.18;58.51;98521.47;5057022;28;20211;-91
2022/03/30 03:35:57;;;;;;;9.27;3.43;;;;;;;12.22;58.10;98515.06;5056782;28;20181;-91
2022/03/30 03:38:22;;;;;;;5.23;2.83;;;;;;;12.21;57.77;98523.06;5075106;28;20180;-91
2022/03/30 03:40:48;;;;;;;3.73;2.07;;;;;;;12.31;57.70;98521.47;5074413;28;20177;-91
2022/03/30 03:43:13;;;;;;;5.07;2.53;;;;;;;12.40;57.50;98512.94;5074361;28;20250;-91
2022/03/30 03:45:39;;;;;;;6.67;3.03;;;;;;;12.46;57.10;98520.41;5074366;28;20207;-91
2022/03/30 03:48:05;;;;;;;9.67;3.33;;;;;;;12.40;57.15;98515.56;5074289;28;20173;-91
2022/03/30 03:50:30;;;;;;;4.80;2.73;;;;;;;12.21;57.76;98523.88;5074531;28;20284;-91
2022/03/30 03:52:56;;;;;;;5.87;3.30;;;;;;;11.94;58.77;98522.31;5074069;28;20704;-91
2022/03/30 03:55:22;;;;;;;6.13;3.30;;;;;;;11.92;58.87;98518.94;5056937;28;20177;-91
2022/03/30 03:57:49;;;;;;;5.07;2.40;;;;;;;12.10;58.38;98518.53;5074037;28;20169;-91
2022/03/30 04:00:15;;;;;;;6.23;2.97;;;;;;;12.17;57.95;98516.31;5074034;28;20314;-91
2022/03/30 04:02:41;;;;;;;7.37;3.03;;;;;;;11.93;58.40;98517.97;5074040;28;20256;-92
2022/03/30 04:05:13;;;;;;;9.03;2.87;;;;;;;11.91;58.83;98518.09;5056671;28;20207;-92
2022/03/30 04:07:39;;;;;;;7.87;3.03;;;;;;;12.07;58.23;98517.91;5074854;28;20158;-93
2022/03/30 04:10:10;;;;;;;5.97;3.40;;;;;;;12.15;57.98;98511.19;5056622;28;20193;-93
2022/03/30 04:12:36;;;;;;;6.37;3.17;;;;;;;12.19;57.83;98522.31;5056657;28;20679;-93
2022/03/30 04:15:02;;;;;;;7.63;3.53;;;;;;;12.23;57.56;98527.25;5056838;28;20616;-92
2022/03/30 04:17:29;;;;;;;6.07;3.57;;;;;;;12.07;57.98;98531.88;5056438;28;20284;-92
2022/03/30 04:19:54;;;;;;;11.00;3.57;;;;;;;12.16;57.86;98523.34;5056648;28;20191;-93
2022/03/30 04:22:20;;;;;;;8.90;3.50;;;;;;;12.25;57.57;98521.88;5056530;28;20177;-93
2022/03/30 04:24:46;;;;;;;10.27;3.57;;;;;;;12.13;58.00;98533.25;5056400;28;20192;-93
2022/03/30 04:27:12;;;;;;;6.50;3.23;;;;;;;11.95;58.52;98537.94;5056461;28;20620;-93
2022/03/30 04:29:38;;;;;;;7.40;3.33;;;;;;;12.13;58.49;98541.13;5073734;28;20177;-94
2022/03/30 04:32:03;;;;;;;11.43;3.03;;;;;;;12.18;58.18;98537.25;5073139;28;20280;-93
2022/03/30 04:34:29;;;;;;;8.53;3.80;;;;;;;12.28;57.62;98534.81;5056106;28;20189;-93
2022/03/30 04:36:56;;;;;;;8.27;3.40;;;;;;;12.22;57.57;98537.84;5074217;28;20183;-94
2022/03/30 04:39:21;;;;;;;11.23;3.53;;;;;;;12.08;58.30;98551.94;5074025;28;20208;-93
2022/03/30 04:41:47;;;;;;;12.33;4.57;;;;;;;12.19;58.31;98538.06;5056210;28;20173;-93
2022/03/30 04:44:12;;;;;;;6.63;3.10;;;;;;;12.23;57.87;98545.66;5074160;28;20250;-93
2022/03/30 04:46:38;;;;;;;6.60;2.90;;;;;;;12.25;58.14;98548.16;5056093;28;20208;-93
2022/03/30 04:49:05;;;;;;;13.07;2.37;;;;;;;12.33;57.61;98537.97;5055344;28;20241;-92
2022/03/30 04:51:31;;;;;;;6.67;3.07;;;;;;;12.26;57.94;98534.09;5055721;28;20176;-93
2022/03/30 04:53:56;;;;;;;6.57;2.77;;;;;;;12.26;57.76;98540.16;5055977;28;20192;-92
2022/03/30 04:56:22;;;;;;;6.17;2.97;;;;;;;12.33;58.10;98551.09;5072345;28;20215;-92
2022/03/30 04:58:49;;;;;;;9.47;3.03;;;;;;;12.42;58.14;98549.63;5056286;28;20235;-93
2022/03/30 05:01:15;;;;;;;9.87;3.30;;;;;;;12.51;57.68;98544.56;5055540;28;20611;-93
2022/03/30 05:03:40;;;;;;;405.53;151.23;;;;;;;12.63;57.71;98546.34;5073160;28;20319;-92
2022/03/30 05:06:06;;;;;;;130.47;48.87;;;;;;;12.83;57.12;98556.31;5055703;28;20185;-92
2022/03/30 05:08:31;;;;;;;60.63;20.07;;;;;;;12.88;57.12;98543.66;5073086;28;20196;-92
2022/03/30 05:10:57;;;;;;;50.30;15.13;;;;;;;12.95;56.55;98541.44;5055503;28;20248;-92
2022/03/30 05:13:23;;;;;;;15.87;6.97;;;;;;;12.99;56.42;98544.69;5055631;28;20303;-93
2022/03/30 05:15:48;;;;;;;7.63;3.50;;;;;;;13.16;55.88;98546.97;5055557;28;20177;-93
2022/03/30 05:18:14;;;;;;;7.93;3.10;;;;;;;13.42;54.64;98548.53;5055672;28;20182;-93
2022/03/30 05:20:43;;;;;;;11.47;5.73;;;;;;;13.78;54.29;98543.19;5055803;28;20256;-92
2022/03/30 05:23:09;;;;;;;12.67;6.00;;;;;;;14.12;53.87;98546.75;5055755;28;20174;-92
2022/03/30 05:25:35;;;;;;;7.23;3.70;;;;;;;14.49;53.59;98550.06;5073209;28;20175;-92
2022/03/30 05:28:00;;;;;;;8.63;3.13;;;;;;;14.76;52.78;98555.81;5055337;28;20194;-92
2022/03/30 05:30:26;;;;;;;8.60;3.07;;;;;;;15.14;51.15;98555.41;5073214;28;20223;-92
2022/03/30 05:32:52;;;;;;;8.80;3.33;;;;;;;15.44;49.10;98550.28;5072772;28;20278;-92
2022/03/30 05:35:17;;;;;;;9.03;3.90;;;;;;;15.73;48.27;98543.47;5055523;28;20188;-91
2022/03/30 05:37:48;;;;;;;8.53;2.70;;;;;;;15.98;47.76;98542.28;5055071;28;20196;-91
2022/03/30 05:40:15;;;;;;;13.33;4.40;;;;;;;16.31;46.82;98539.44;5073339;28;20197;-91
2022/03/30 05:42:41;;;;;;;13.47;4.47;;;;;;;16.64;46.38;98537.53;5055636;28;20184;-91
2022/03/30 05:45:07;;;;;;;9.87;4.73;;;;;;;16.91;45.17;98551.00;5072608;28;20174;-90
2022/03/30 05:47:33;;;;;;;11.37;4.47;;;;;;;17.07;45.17;98538.09;5073167;28;20177;-92
2022/03/30 05:49:58;;;;;;;12.70;4.77;;;;;;;17.43;44.52;98541.91;5072888;28;20330;-91
2022/03/30 05:52:24;;;;;;;8.37;3.63;;;;;;;17.69;44.01;98537.78;5072759;28;20613;-91
2022/03/30 05:54:50;;;;;;;14.87;4.07;;;;;;;17.68;44.11;98538.78;5072604;28;20179;-92
2022/03/30 05:57:21;;;;;;;18.97;6.17;;;;;;;17.93;44.65;98532.03;5055002;28;20545;-91
2022/03/30 05:59:46;;;;;;;18.27;7.20;;;;;;;18.11;43.86;98535.63;5054958;28;20238;-91
2022/03/30 06:02:13;;;;;;;21.30;8.10;;;;;;;18.37;44.06;98534.88;5076264;28;20177;-92
2022/03/30 06:04:41;;;;;;;15.93;6.70;;;;;;;18.50;42.86;98531.94;5058952;28;20600;-91
2022/03/30 06:07:06;;;;;;;17.80;5.47;;;;;;;18.68;42.50;98535.53;5058873;28;20181;-92
2022/03/30 06:09:33;;;;;;;9.70;4.13;;;;;;;18.96;42.05;98526.59;5058959;28;20261;-91
2022/03/30 06:12:05;;;;;;;9.77;4.13;;;;;;;19.18;41.75;98530.63;5076139;28;20204;-92
2022/03/30 06:14:33;;;;;;;6.10;2.67;;;;;;;19.48;41.02;98530.34;5058535;28;20173;-92
2022/03/30 06:17:00;;;;;;;10.23;4.37;;;;;;;19.76;40.83;98527.63;5076323;28;20181;-91
2022/03/30 06:19:27;;;;;;;9.67;3.37;;;;;;;20.13;40.37;98531.75;5076228;28;20214;-91
2022/03/30 06:21:52;;;;;;;9.77;4.07;;;;;;;20.68;39.27;98531.44;5076211;28;20257;-91
2022/03/30 06:24:18;;;;;;;12.67;3.83;;;;;;;21.49;37.75;98526.44;5075844;28;20196;-91
2022/03/30 06:26:44;;;;;;;11.43;4.23;;;;;;;22.44;36.42;98523.94;5058171;28;20275;-91
2022/03/30 06:29:13;;;;;;;13.60;4.43;;;;;;;22.86;35.71;98523.69;5076035;28;20511;-92
2022/03/30 06:31:44;;;;;;;6.37;2.93;;;;;;;23.79;34.68;98512.81;5075639;28;20318;-92
2022/03/30 06:34:09;;;;;;;14.00;5.23;;;;;;;24.47;33.03;98519.97;5075691;28;20216;-90
2022/03/30 06:36:44;;;;;;;14.23;5.43;;;;;;;24.97;32.13;98521.94;5058098;28;20217;-93
2022/03/30 06:39:17;;;;;;;16.90;5.33;;;;;;;25.27;31.71;98526.22;5076003;28;20184;-94
2022/03/30 06:41:50;;;;;;;8.93;4.27;;;;;;;25.57;31.19;98529.69;5076201;28;20165;-92
2022/03/30 06:44:20;;;;;;;11.23;4.60;;;;;;;25.81;30.25;98536.56;5076172;28;20179;-93
2022/03/30 06:47:39;;;;;;;;;;;;;;;;;;;;;
2022/03/30 06:50:44;;;;;;;;;;;;;;;;;;;;;
2022/03/30 06:53:34;;;;;;;;;;;;;;;;;;;;;
2022/03/30 06:57:06;;;;;;;11.33;5.07;;;;;;;27.03;29.84;98542.28;5075864;28;20157;-92
2022/03/30 07:06:29;;;;;;;10.10;4.17;;;;;;;27.37;28.26;98541.41;4991395;28;20237;-91
2022/03/30 07:19:48;;;;;;;6.57;3.90;;;;;;;26.42;29.19;98560.06;4977204;28;20274;-92
2022/03/30 07:22:19;;;;;;;8.77;3.40;;;;;;;26.51;28.85;98552.69;4997197;28;20175;-92
2022/03/30 07:45:47;;;;;;;6.80;3.00;;;;;;;26.13;29.31;98570.97;4938281;28;20233;-89
2022/03/30 07:48:13;;;;;;;5.57;2.30;;;;;;;25.88;29.33;98556.22;4977139;28;20196;-90
2022/03/30 07:58:07;;;;;;;8.77;2.60;;;;;;;25.37;30.63;98555.41;4918421;28;20226;-92
2022/03/30 08:00:33;;;;;;;8.17;2.50;;;;;;;25.44;30.19;98545.63;4916975;29;20298;-89
2022/03/30 08:09:50;;;;;;;18.57;2.90;;;;;;;25.36;29.77;98551.94;4993291;28;20297;-92
2022/03/30 08:12:16;;;;;;;8.47;3.03;;;;;;;25.35;29.83;98555.63;5052002;28;20280;-91
2022/03/30 08:14:42;;;;;;;7.70;2.53;;;;;;;25.34;30.27;98547.78;5053804;28;20256;-92
2022/03/30 08:17:10;;;;;;;18.80;3.37;;;;;;;25.40;29.35;98544.31;5053683;28;20177;-92
2022/03/30 08:23:55;;;;;;;;;;;;;;;;;;;;;
2022/03/30 08:33:38;;;;;;;5.87;3.27;;;;;;;24.82;30.41;98535.31;5053837;28;20567;-96
2022/03/30 08:36:58;;;;;;;9.60;2.60;;;;;;;24.87;30.27;98530.25;5054540;28;20209;-93
2022/03/30 08:46:09;;;;;;;7.10;2.63;;;;;;;25.36;29.01;98513.53;5053889;28;20640;-96
2022/03/30 08:52:16;;;;;;;7.63;3.33;;;;;;;25.81;27.28;98507.84;5030896;28;20217;-89
2022/03/30 08:54:43;;;;;;;8.33;2.93;;;;;;;25.73;27.38;98505.28;5031902;28;20186;-89
2022/03/30 08:57:23;;;;;;;7.17;2.70;;;;;;;25.81;27.93;98501.66;5041572;28;20186;-91
2022/03/30 09:00:04;;;;;;;6.20;3.00;;;;;;;25.54;28.50;98506.75;5053167;28;20181;-92
2022/03/30 09:02:37;;;;;;;8.67;2.77;;;;;;;25.43;27.91;98503.69;5051989;28;20660;-90
2022/03/30 09:11:55;;;;;;;8.97;3.33;;;;;;;25.34;28.91;98478.81;5057650;28;20669;-94
2022/03/30 09:14:49;;;;;;;9.57;3.33;;;;;;;25.50;28.66;98473.25;5036121;28;20284;-89
2022/03/30 09:17:14;;;;;;;6.37;2.90;;;;;;;25.79;28.17;98474.97;5053118;28;20495;-89
2022/03/30 09:19:40;;;;;;;7.37;3.10;;;;;;;25.84;27.93;98461.78;5053171;28;20180;-92
2022/03/30 09:23:01;;;;;;;11.15;3.72;;;;;;;25.99;26.89;98456.34;5035868;28;20188;-96
2022/03/30 09:25:31;;;;;;;8.00;3.33;;;;;;;26.16;26.67;98453.22;5053704;28;20220;-93
2022/03/30 09:28:49;;;;;;;6.93;3.15;;;;;;;26.26;26.50;98450.16;5036149;28;20201;-96
2022/03/30 09:31:16;;;;;;;10.10;3.78;;;;;;;26.15;26.57;98448.84;5054874;28;20180;-90
2022/03/30 09:33:42;;;;;;;5.35;2.85;;;;;;;25.79;25.58;98448.13;5052808;28;20197;-90
2022/03/30 09:36:29;;;;;;;10.48;3.55;;;;;;;25.78;25.40;98445.66;5038924;28;20648;-92
2022/03/30 09:38:57;;;;;;;6.75;3.38;;;;;;;25.76;25.35;98443.13;5057173;28;20227;-92
2022/03/30 09:41:23;;;;;;;9.30;3.50;;;;;;;25.83;26.52;98452.09;5056729;28;20710;-89
2022/03/30 09:43:49;;;;;;;6.63;3.22;;;;;;;26.12;25.88;98438.53;5039071;28;20197;-91
2022/03/30 09:46:58;;;;;;;10.90;4.10;;;;;;;26.06;26.48;98431.22;5056969;28;20196;-96
2022/03/30 09:49:41;;;;;;;8.77;3.30;;;;;;;26.11;26.54;98428.75;5057145;28;20173;-90
2022/03/30 09:53:03;;;;;;;7.43;3.00;;;;;;;26.07;25.91;98427.47;5057333;28;20208;-91
2022/03/30 09:55:29;;;;;;;7.97;3.30;;;;;;;26.35;25.43;98422.13;4996072;28;20210;-93
2022/03/30 09:58:07;;;;;;;8.82;3.50;;;;;;;26.55;25.70;98406.09;4995711;28;20646;-93
2022/03/30 10:00:32;;;;;;;12.05;4.05;;;;;;;26.58;25.95;98401.16;4996113;28;20250;-90
2022/03/30 10:03:01;;;;;;;8.55;3.83;;;;;;;26.81;26.21;98399.00;4996308;28;20220;-95
2022/03/30 10:08:58;;;;;;;8.18;4.10;;;;;;;26.79;24.78;98384.09;4997882;28;20543;-96
2022/03/30 10:11:27;;;;;;;7.82;3.78;;;;;;;26.86;25.16;98389.53;4995258;28;20253;-91
2022/03/30 10:14:00;;;;;;;9.40;4.55;;;;;;;26.86;26.41;98378.75;5015301;28;20305;-92
2022/03/30 10:16:35;;;;;;;7.57;3.78;;;;;;;26.97;26.04;98370.91;5015534;28;20599;-94
2022/03/30 10:19:01;;;;;;;6.60;3.83;;;;;;;26.72;25.91;98364.41;5015364;28;20182;-91
2022/03/30 10:21:41;;;;;;;16.05;4.75;;;;;;;26.89;25.04;98368.41;4998400;28;20294;-91
2022/03/30 10:24:22;;;;;;;8.45;4.20;;;;;;;26.87;24.60;98364.28;5015049;28;20171;-91
2022/03/30 10:30:22;;;;;;;8.35;4.28;;;;;;;26.47;27.29;98360.56;5054528;28;20189;-90
2022/03/30 10:32:59;;;;;;;12.63;3.63;;;;;;;26.58;27.33;98368.06;5075914;28;20193;-91
2022/03/30 10:35:48;;;;;;;8.32;3.28;;;;;;;26.43;27.10;98362.84;5076484;28;20169;-91
2022/03/30 10:38:18;;;;;;;8.13;3.33;;;;;;;26.24;26.54;98358.19;5058328;28;20189;-91
2022/03/30 10:40:44;;;;;;;11.45;3.55;;;;;;;26.22;26.57;98355.72;5075948;28;20187;-91
2022/03/30 10:43:12;;;;;;;7.97;3.25;;;;;;;26.13;27.01;98361.44;5058107;28;20181;-92
2022/03/30 10:46:06;;;;;;;7.55;3.92;;;;;;;26.19;27.25;98347.22;5075871;28;20181;-95
2022/03/30 10:48:33;;;;;;;9.32;3.38;;;;;;;26.03;26.75;98340.28;5045535;28;20216;-90
2022/03/30 10:51:02;;;;;;;6.00;3.47;;;;;;;26.18;25.52;98335.63;5058161;28;20181;-95
2022/03/30 10:53:31;;;;;;;8.63;4.43;;;;;;;25.88;26.76;98347.63;5058112;28;20204;-90
2022/03/30 10:56:29;;;;;;;13.38;3.25;;;;;;;25.85;25.99;98331.91;5075413;28;20177;-93
2022/03/30 10:58:59;;;;;;;8.98;4.38;;;;;;;25.59;26.31;98326.34;5075280;28;20223;-92
2022/03/30 11:01:26;;;;;;;9.25;3.72;;;;;;;25.82;26.42;98329.59;5076139;28;20165;-91
2022/03/30 11:04:32;;;;;;;8.05;4.28;;;;;;;25.74;26.13;98335.13;5076760;28;20165;-96
2022/03/30 11:06:56;;;;;;;8.43;3.22;;;;;;;25.77;25.92;98337.41;5075126;28;20230;-93
2022/03/30 11:09:25;;;;;;;9.18;3.22;;;;;;;25.73;26.18;98341.53;5075120;28;20555;-88
2022/03/30 11:12:05;;;;;;;8.25;3.53;;;;;;;25.90;25.32;98340.19;5074978;28;20246;-91
2022/03/30 11:14:32;;;;;;;9.82;2.90;;;;;;;26.21;25.58;98308.38;5075734;28;20165;-91
2022/03/30 11:17:06;;;;;;;4.80;2.58;;;;;;;26.07;23.76;98319.22;5075129;28;20255;-89
2022/03/30 11:19:46;;;;;;;6.25;2.92;;;;;;;25.91;24.71;98311.50;5056697;28;20641;-91
2022/03/30 11:22:16;;;;;;;11.75;3.13;;;;;;;26.03;25.76;98304.53;5075170;28;20169;-91
2022/03/30 11:24:44;;;;;;;6.90;2.92;;;;;;;26.20;26.01;98309.38;5075205;28;20158;-91
2022/03/30 11:27:10;;;;;;;7.10;3.72;;;;;;;26.51;25.49;98306.22;5074894;28;20209;-92
2022/03/30 11:29:42;;;;;;;8.25;3.30;;;;;;;26.43;24.94;98306.41;5074799;28;20534;-88
2022/03/30 11:32:34;;;;;;;9.50;3.55;;;;;;;26.24;25.35;98304.47;5074680;28;20197;-92
2022/03/30 11:35:03;;;;;;;11.27;3.15;;;;;;;26.27;24.69;98296.00;5066726;28;20246;-89
2022/03/30 11:37:37;;;;;;;9.13;3.22;;;;;;;25.86;24.88;98282.56;5075130;28;20177;-94
2022/03/30 11:40:43;;;;;;;6.47;2.40;;;;;;;25.88;25.80;98267.06;5074904;28;20165;-92
2022/03/30 11:43:10;;;;;;;10.48;3.20;;;;;;;25.70;25.83;98263.25;5074463;28;20591;-91
2022/03/30 11:45:50;;;;;;;5.35;2.28;;;;;;;25.71;26.50;98260.34;5074414;28;20180;-92
2022/03/30 11:48:21;;;;;;;4.90;2.37;;;;;;;25.75;26.70;98253.56;5073976;28;20203;-93
2022/03/30 11:50:59;;;;;;;32.97;8.32;;;;;;;25.84;26.25;98254.25;5074498;28;20177;-93
2022/03/30 11:53:28;;;;;;;8.98;2.92;;;;;;;25.74;27.59;98240.31;5056698;28;20258;-93
2022/03/30 11:56:26;;;;;;;7.13;3.15;;;;;;;25.98;27.60;98237.97;5074398;28;20185;-90
2022/03/30 11:58:57;;;;;;;8.88;2.53;;;;;;;26.35;27.54;98241.25;5050281;28;20193;-90
2022/03/30 12:01:33;;;;;;;5.65;1.77;;;;;;;26.15;26.99;98233.94;5074851;28;20172;-93
2022/03/30 12:03:59;;;;;;;9.05;2.80;;;;;;;26.08;27.03;98241.13;5074363;28;20173;-91
2022/03/30 12:06:30;;;;;;;9.30;2.53;;;;;;;25.68;27.07;98243.81;5074055;28;20184;-92
2022/03/30 12:09:17;;;;;;;10.90;3.40;;;;;;;25.58;28.21;98234.25;5056464;28;20173;-91
2022/03/30 12:11:52;;;;;;;3.93;1.70;;;;;;;25.65;28.79;98239.69;5073820;28;20197;-96
2022/03/30 12:14:54;;;;;;;8.68;2.35;;;;;;;25.94;27.79;98235.91;5057046;28;20242;-93
2022/03/30 12:17:27;;;;;;;5.10;2.10;;;;;;;26.15;27.34;98231.25;5074481;28;20301;-90
2022/03/30 12:19:56;;;;;;;5.60;2.50;;;;;;;26.16;27.45;98222.19;5056424;28;20240;-92
2022/03/30 12:22:22;;;;;;;7.10;2.22;;;;;;;26.22;27.82;98216.00;5056471;28;20211;-90
2022/03/30 12:24:48;;;;;;;5.60;1.80;;;;;;;26.36;27.51;98208.81;5073753;28;20242;-93
2022/03/30 12:27:15;;;;;;;6.63;2.30;;;;;;;26.47;28.20;98204.69;5056472;28;20177;-91
2022/03/30 12:30:24;;;;;;;5.32;1.70;;;;;;;26.54;27.86;98197.47;5073677;28;20612;-94
2022/03/30 12:32:50;;;;;;;8.13;2.45;;;;;;;26.43;27.68;98204.28;5056835;28;20208;-94
2022/03/30 12:35:18;;;;;;;5.65;2.08;;;;;;;26.44;27.99;98197.06;5073550;28;20250;-90
2022/03/30 12:37:46;;;;;;;4.63;1.60;;;;;;;26.29;28.30;98199.06;5073762;28;20184;-90
2022/03/30 12:40:14;;;;;;;6.88;2.17;;;;;;;26.10;28.07;98204.13;5073667;28;20186;-94
2022/03/30 12:42:44;;;;;;;5.60;2.25;;;;;;;25.94;28.83;98201.00;5055850;28;20176;-92
2022/03/30 12:45:14;;;;;;;5.68;1.95;;;;;;;25.56;28.02;98196.06;5073491;28;20222;-91
2022/03/30 12:47:47;;;;;;;4.00;1.83;;;;;;;25.28;28.86;98200.59;5073680;28;20181;-89
2022/03/30 12:50:17;;;;;;;9.10;2.90;;;;;;;24.97;29.59;98192.94;5055767;28;20188;-93
2022/03/30 12:52:49;;;;;;;4.50;1.70;;;;;;;25.17;29.67;98198.47;5073255;28;20656;-90
2022/03/30 12:55:28;;;;;;;6.00;2.00;;;;;;;25.13;29.64;98188.31;5073852;28;20177;-90
2022/03/30 12:58:14;;;;;;;10.37;2.30;;;;;;;24.69;30.09;98192.06;5056045;28;20195;-91
2022/03/30 13:00:41;;;;;;;4.50;1.67;;;;;;;24.48;31.08;98184.00;5073935;28;20157;-92
2022/03/30 13:03:19;;;;;;;4.83;1.90;;;;;;;24.50;30.94;98179.31;5073671;28;20173;-93
2022/03/30 13:06:04;;;;;;;6.70;1.87;;;;;;;24.61;30.52;98175.25;5073508;28;20172;-90
2022/03/30 13:08:29;;;;;;;6.43;2.47;;;;;;;24.42;31.16;98176.75;5055347;28;20242;-89
2022/03/30 13:10:57;;;;;;;4.50;1.43;;;;;;;24.38;31.30;98180.81;5055001;28;20636;-87
2022/03/30 13:13:37;;;;;;;7.73;1.67;;;;;;;23.79;32.19;98190.84;5073040;28;20193;-90
2022/03/30 13:16:09;;;;;;;5.87;2.33;;;;;;;23.61;32.40;98177.84;5073111;28;20165;-90
2022/03/30 13:18:38;;;;;;;12.80;2.77;;;;;;;23.35;32.86;98190.81;5073202;28;20191;-89
2022/03/30 13:21:10;;;;;;;5.23;1.83;;;;;;;22.97;33.53;98183.88;5073231;28;20173;-90
2022/03/30 13:23:50;;;;;;;7.50;2.47;;;;;;;22.94;33.64;98182.41;5073497;28;20240;-91